Time;durP1;ratioP1;P1;durP2;ratioP2;P2;SDS_P1;SDS_P2;PMS_P1;PMS_P2;Temp;Humidity;BMP_temperature;BMP_pressure;BME280_temperature;BME280_humidity;BME280_pressure;Samples;Min_cycle;Max_cycle;Signal;HPM_P1;HPM_P2
2023/12/01 00:00:00;;;;;;;28.27;15.45;;;1.30;99.90;;;;;;5006703;28;20034;-58
2023/12/01 00:02:26;;;;;;;34.35;16.20;;;1.30;99.90;;;;;;5025465;28;20038;-60
2023/12/01 00:04:52;;;;;;;30.73;15.18;;;1.30;99.90;;;;;;5011983;28;20046;-59
2023/12/01 00:07:18;;;;;;;31.55;15.07;;;1.30;99.90;;;;;;5006633;28;20104;-58
2023/12/01 00:09:44;;;;;;;35.35;16.27;;;1.30;99.90;;;;;;5008935;28;20523;-59
2023/12/01 00:12:09;;;;;;;30.42;15.70;;;1.30;99.90;;;;;;5016015;28;20046;-59
2023/12/01 00:14:40;;;;;;;32.58;16.42;;;1.30;99.90;;;;;;5009816;28;20072;-59
2023/12/01 00:17:06;;;;;;;34.08;15.40;;;1.30;99.90;;;;;;5024910;28;20077;-59
2023/12/01 00:19:31;;;;;;;34.30;16.88;;;1.30;99.90;;;;;;5029498;28;20076;-60
2023/12/01 00:21:57;;;;;;;36.53;16.98;;;1.30;99.90;;;;;;5017105;28;20491;-58
2023/12/01 00:24:23;;;;;;;40.13;17.48;;;1.30;99.90;;;;;;5013699;28;20057;-59
2023/12/01 00:26:49;;;;;;;38.28;18.30;;;1.40;99.90;;;;;;5015576;28;20045;-60
2023/12/01 00:29:14;;;;;;;35.35;16.27;;;1.30;99.90;;;;;;5010690;28;20394;-59
2023/12/01 00:31:40;;;;;;;34.72;15.25;;;1.30;99.90;;;;;;5007769;28;20139;-60
2023/12/01 00:34:06;;;;;;;38.88;16.55;;;1.30;99.90;;;;;;5009561;28;20499;-59
2023/12/01 00:36:32;;;;;;;40.25;18.70;;;1.30;99.90;;;;;;5001379;28;20492;-59
2023/12/01 00:38:59;;;;;;;36.15;16.40;;;1.30;99.90;;;;;;4997728;28;20049;-59
2023/12/01 00:41:25;;;;;;;38.10;17.15;;;1.30;99.90;;;;;;5026918;28;20038;-59
2023/12/01 00:43:51;;;;;;;39.90;17.90;;;1.30;99.90;;;;;;4999517;28;20395;-59
2023/12/01 00:46:17;;;;;;;40.15;17.80;;;1.20;99.90;;;;;;5029748;28;20222;-59
2023/12/01 00:48:43;;;;;;;38.88;16.80;;;1.20;99.90;;;;;;5006745;28;20037;-59
2023/12/01 00:54:49;;;;;;;34.38;15.18;;;1.20;99.90;;;;;;5024972;28;20448;-59
2023/12/01 00:57:15;;;;;;;31.83;14.45;;;1.10;99.90;;;;;;5005175;28;20038;-59
2023/12/01 00:59:40;;;;;;;31.65;16.50;;;1.10;99.90;;;;;;5010366;28;20042;-59
2023/12/01 01:02:08;;;;;;;30.48;13.98;;;1.10;99.90;;;;;;5000228;28;20132;-60
2023/12/01 01:04:34;;;;;;;34.13;14.60;;;1.10;99.90;;;;;;5001168;28;20129;-59
2023/12/01 01:06:59;;;;;;;32.17;14.48;;;1.00;99.90;;;;;;5013243;28;20132;-59
2023/12/01 01:09:25;;;;;;;29.25;15.48;;;0.90;99.90;;;;;;5003285;28;20038;-59
2023/12/01 01:11:51;;;;;;;29.88;14.80;;;1.00;99.90;;;;;;5010633;28;20038;-59
2023/12/01 01:14:17;;;;;;;36.50;15.52;;;0.90;99.90;;;;;;4994993;28;20124;-60
2023/12/01 01:16:42;;;;;;;33.67;16.42;;;0.90;99.90;;;;;;5006584;28;20061;-60
2023/12/01 01:19:08;;;;;;;40.35;17.83;;;0.90;99.90;;;;;;4995597;28;20060;-59
2023/12/01 01:21:34;;;;;;;36.55;17.25;;;0.90;99.90;;;;;;5000693;28;20042;-59
2023/12/01 01:23:59;;;;;;;41.92;17.20;;;0.90;99.90;;;;;;5012145;28;20040;-59
2023/12/01 01:26:25;;;;;;;40.90;17.95;;;0.90;99.90;;;;;;5011192;28;20037;-59
2023/12/01 01:28:51;;;;;;;41.97;17.95;;;0.90;99.90;;;;;;5011966;28;20090;-59
2023/12/01 01:31:16;;;;;;;38.85;17.17;;;0.90;99.90;;;;;;5009730;28;20337;-59
2023/12/01 01:33:42;;;;;;;39.45;17.45;;;0.90;99.90;;;;;;5015236;28;20048;-59
2023/12/01 01:36:08;;;;;;;38.03;17.88;;;0.90;99.90;;;;;;5009356;28;20041;-59
2023/12/01 01:38:34;;;;;;;36.67;18.23;;;0.90;99.90;;;;;;5008262;28;20046;-59
2023/12/01 01:40:59;;;;;;;37.38;17.20;;;0.80;99.90;;;;;;5011406;28;20036;-59
2023/12/01 01:43:26;;;;;;;36.63;17.02;;;0.80;99.90;;;;;;5009586;28;20107;-59
2023/12/01 01:46:09;;;;;;;38.58;18.63;;;0.80;99.90;;;;;;5007626;28;20046;-59
2023/12/01 01:48:35;;;;;;;36.95;17.23;;;0.80;99.90;;;;;;5023587;28;20109;-59
2023/12/01 01:51:02;;;;;;;37.45;16.95;;;0.80;99.90;;;;;;5023400;28;20124;-59
2023/12/01 01:53:29;;;;;;;35.28;17.38;;;0.70;99.90;;;;;;5010561;28;20148;-59
2023/12/01 01:55:57;;;;;;;32.78;15.23;;;0.70;99.90;;;;;;5010651;28;20606;-60
2023/12/01 01:58:24;;;;;;;33.60;17.10;;;0.60;99.90;;;;;;5013638;28;20050;-59
2023/12/01 02:00:50;;;;;;;35.22;17.08;;;0.70;99.90;;;;;;4981170;28;20674;-59
2023/12/01 02:03:18;;;;;;;37.25;18.20;;;0.60;99.90;;;;;;5019096;28;20066;-59
2023/12/01 02:05:48;;;;;;;34.10;16.50;;;0.60;99.90;;;;;;5008182;28;20058;-60
2023/12/01 02:08:25;;;;;;;38.70;17.85;;;0.60;99.90;;;;;;5009672;28;20034;-59
2023/12/01 02:10:55;;;;;;;40.20;18.15;;;0.60;99.90;;;;;;5012634;28;20435;-59
2023/12/01 02:13:22;;;;;;;40.30;16.70;;;0.50;99.90;;;;;;4992933;28;20085;-59
2023/12/01 02:15:48;;;;;;;36.25;17.33;;;0.50;99.90;;;;;;5001190;28;20088;-59
2023/12/01 02:18:24;;;;;;;41.10;17.50;;;0.50;99.90;;;;;;4995770;28;20132;-60
2023/12/01 02:20:55;;;;;;;35.65;17.60;;;0.50;99.90;;;;;;5002451;28;20131;-59
2023/12/01 02:23:21;;;;;;;34.10;18.10;;;0.60;99.90;;;;;;5012736;28;20045;-59
2023/12/01 02:25:48;;;;;;;35.40;17.70;;;0.50;99.90;;;;;;5012071;28;20126;-60
2023/12/01 02:28:14;;;;;;;35.40;16.27;;;0.60;99.90;;;;;;5013758;28;20048;-59
2023/12/01 02:30:42;;;;;;;37.95;17.63;;;0.50;99.90;;;;;;5011413;28;20100;-59
2023/12/01 02:33:07;;;;;;;37.80;18.48;;;0.50;99.90;;;;;;5016788;28;20095;-60
2023/12/01 02:35:34;;;;;;;35.30;17.10;;;0.40;99.90;;;;;;5006610;28;20038;-58
2023/12/01 02:38:00;;;;;;;37.70;17.95;;;0.40;99.90;;;;;;5022402;28;20041;-60
2023/12/01 02:40:27;;;;;;;33.30;16.85;;;0.30;99.90;;;;;;5005142;28;20153;-59
2023/12/01 02:42:54;;;;;;;32.60;15.65;;;0.30;99.90;;;;;;5001838;28;20041;-59
2023/12/01 02:45:21;;;;;;;29.88;15.82;;;0.30;99.90;;;;;;5009625;28;20049;-59
2023/12/01 02:47:49;;;;;;;33.17;17.35;;;0.20;99.90;;;;;;4992105;28;20516;-58
2023/12/01 02:50:15;;;;;;;29.55;16.23;;;0.20;99.90;;;;;;5028904;28;20065;-59
2023/12/01 02:52:41;;;;;;;34.53;16.98;;;0.20;99.90;;;;;;5013844;28;20045;-59
2023/12/01 02:55:08;;;;;;;32.33;16.55;;;0.20;99.90;;;;;;5008877;28;20524;-60
2023/12/01 02:57:35;;;;;;;31.17;16.25;;;0.20;99.90;;;;;;5011888;28;20041;-60
2023/12/01 03:00:05;;;;;;;33.90;16.80;;;0.20;99.90;;;;;;5003565;28;20065;-59
2023/12/01 03:02:34;;;;;;;30.00;14.50;;;0.20;99.90;;;;;;5023135;28;20131;-59
2023/12/01 03:05:00;;;;;;;39.92;17.83;;;0.20;99.90;;;;;;5006981;28;20107;-59
2023/12/01 03:07:26;;;;;;;33.30;17.48;;;0.10;99.90;;;;;;5017131;28;20516;-60
2023/12/01 03:09:52;;;;;;;43.78;21.05;;;0.10;99.90;;;;;;5012230;28;20038;-60
2023/12/01 03:12:18;;;;;;;41.78;20.13;;;0.10;99.90;;;;;;5005757;28;20026;-59
2023/12/01 03:14:43;;;;;;;48.92;22.33;;;0.10;99.90;;;;;;4997120;28;20161;-60
2023/12/01 03:17:09;;;;;;;55.50;25.30;;;0.00;99.90;;;;;;5009935;28;20041;-60
2023/12/01 03:19:34;;;;;;;44.42;21.67;;;-0.10;99.90;;;;;;5013237;28;20189;-60
2023/12/01 03:22:00;;;;;;;39.90;20.40;;;-0.10;99.90;;;;;;5020515;28;20034;-59
2023/12/01 03:24:26;;;;;;;42.75;19.67;;;-0.10;99.90;;;;;;5007284;28;20042;-60
2023/12/01 03:26:51;;;;;;;34.65;16.73;;;-0.10;99.90;;;;;;5010154;28;20052;-60
2023/12/01 03:29:17;;;;;;;35.20;18.10;;;-0.10;99.90;;;;;;5011455;28;20389;-60
2023/12/01 03:31:43;;;;;;;39.95;18.98;;;-0.10;99.90;;;;;;5009775;28;20042;-60
2023/12/01 03:34:08;;;;;;;36.20;18.80;;;-0.20;99.90;;;;;;5012860;28;20068;-60
2023/12/01 03:36:34;;;;;;;42.47;19.13;;;-0.20;99.90;;;;;;5005130;28;20046;-60
2023/12/01 03:39:03;;;;;;;40.05;20.45;;;-0.30;99.90;;;;;;5016441;28;20137;-60
2023/12/01 03:41:29;;;;;;;44.22;21.42;;;-0.30;99.90;;;;;;5003595;28;20056;-59
2023/12/01 03:43:54;;;;;;;40.63;19.67;;;-0.30;99.90;;;;;;5021030;28;20046;-60
2023/12/01 03:46:20;;;;;;;38.83;18.42;;;-0.30;99.90;;;;;;5000002;28;20052;-60
2023/12/01 03:48:46;;;;;;;41.47;21.20;;;-0.30;99.90;;;;;;5003836;28;20038;-60
2023/12/01 03:51:11;;;;;;;39.28;20.83;;;-0.40;99.90;;;;;;5003992;28;20501;-60
2023/12/01 03:53:37;;;;;;;46.45;23.33;;;-0.50;99.90;;;;;;4985842;28;20045;-59
2023/12/01 03:56:04;;;;;;;38.70;19.50;;;-0.50;99.90;;;;;;5005545;28;20110;-60
2023/12/01 03:58:29;;;;;;;38.70;19.77;;;-0.50;99.90;;;;;;5002069;28;20061;-60
2023/12/01 04:00:55;;;;;;;45.55;20.40;;;-0.50;99.90;;;;;;5002712;28;20033;-60
2023/12/01 04:03:24;;;;;;;47.00;22.43;;;-0.60;99.90;;;;;;5000669;28;20544;-60
2023/12/01 04:05:50;;;;;;;47.95;23.80;;;-0.50;99.90;;;;;;4995322;28;20321;-59
2023/12/01 04:08:16;;;;;;;55.83;26.13;;;-0.60;99.90;;;;;;5000870;28;20042;-59
2023/12/01 04:10:46;;;;;;;58.08;26.98;;;-0.70;99.90;;;;;;5001297;28;20046;-59
2023/12/01 04:13:12;;;;;;;111.43;50.17;;;-0.70;99.90;;;;;;5022734;28;20504;-59
2023/12/01 04:15:39;;;;;;;61.10;31.87;;;-0.70;99.90;;;;;;5014521;28;20042;-59
2023/12/01 04:18:08;;;;;;;44.75;22.67;;;-0.70;99.90;;;;;;5005840;28;20131;-60
2023/12/01 04:20:38;;;;;;;38.23;19.47;;;-0.70;99.90;;;;;;5006126;28;20080;-60
2023/12/01 04:23:09;;;;;;;35.40;18.07;;;-0.80;99.90;;;;;;5019132;28;20050;-59
2023/12/01 04:25:39;;;;;;;37.70;19.07;;;-0.80;99.90;;;;;;5021809;28;20492;-59
2023/12/01 04:28:06;;;;;;;46.67;22.98;;;-0.80;99.90;;;;;;5002725;28;20095;-59
2023/12/01 04:30:34;;;;;;;41.30;20.07;;;-0.80;99.90;;;;;;5017086;28;20041;-59
2023/12/01 04:33:00;;;;;;;38.93;20.27;;;-0.80;99.90;;;;;;4996630;28;20037;-59
2023/12/01 04:35:30;;;;;;;34.77;17.33;;;-0.90;99.90;;;;;;5002941;28;20095;-60
2023/12/01 04:37:58;;;;;;;41.97;19.70;;;-0.90;99.90;;;;;;5005275;28;20046;-59
2023/12/01 04:40:26;;;;;;;45.50;22.80;;;-0.90;99.90;;;;;;5002178;28;20038;-59
2023/12/01 04:42:53;;;;;;;41.27;19.43;;;-0.90;99.90;;;;;;5020659;28;20033;-60
2023/12/01 04:45:20;;;;;;;40.23;21.17;;;-1.00;99.90;;;;;;5002921;28;20030;-60
2023/12/01 04:47:50;;;;;;;55.57;27.73;;;-1.00;99.90;;;;;;5024847;28;20096;-59
2023/12/01 04:50:19;;;;;;;83.10;39.97;;;-1.00;99.90;;;;;;5012464;28;20050;-59
2023/12/01 04:52:47;;;;;;;87.83;41.13;;;-1.00;99.90;;;;;;5008474;28;20045;-59
2023/12/01 04:55:15;;;;;;;76.07;36.37;;;-1.00;99.90;;;;;;4987001;28;20042;-59
2023/12/01 04:57:42;;;;;;;81.33;37.53;;;-1.00;99.90;;;;;;5022332;28;20036;-59
2023/12/01 05:00:22;;;;;;;56.00;25.40;;;-1.00;99.90;;;;;;5023044;28;20049;-59
2023/12/01 05:02:53;;;;;;;41.80;18.93;;;-1.00;99.90;;;;;;5026915;28;20113;-60
2023/12/01 05:05:29;;;;;;;41.87;19.23;;;-1.00;99.90;;;;;;5008693;28;20041;-59
2023/12/01 05:07:57;;;;;;;42.23;19.37;;;-1.00;99.90;;;;;;5012637;28;20037;-59
2023/12/01 05:10:30;;;;;;;42.23;19.23;;;-1.10;99.90;;;;;;5010436;28;20481;-59
2023/12/01 05:12:57;;;;;;;37.05;17.25;;;-1.10;99.90;;;;;;5009413;28;20121;-60
2023/12/01 05:15:25;;;;;;;39.73;17.50;;;-1.10;99.90;;;;;;5007154;28;20126;-59
2023/12/01 05:17:57;;;;;;;43.13;19.25;;;-1.00;99.90;;;;;;5005121;28;20112;-59
2023/12/01 05:20:27;;;;;;;41.63;20.57;;;-1.10;99.90;;;;;;4997878;28;20045;-60
2023/12/01 05:22:58;;;;;;;39.33;18.13;;;-1.10;99.90;;;;;;5008848;28;20214;-59
2023/12/01 05:25:32;;;;;;;39.50;18.57;;;-1.10;99.90;;;;;;5024306;28;20574;-58
2023/12/01 05:27:59;;;;;;;42.00;21.10;;;-1.20;99.90;;;;;;5011429;28;20524;-59
2023/12/01 05:30:27;;;;;;;37.70;17.87;;;-1.20;99.90;;;;;;5026988;28;20057;-60
2023/12/01 05:32:54;;;;;;;37.37;17.17;;;-1.20;99.90;;;;;;5008270;28;20544;-59
2023/12/01 05:35:21;;;;;;;36.57;17.70;;;-1.20;99.90;;;;;;5009926;28;20042;-59
2023/12/01 05:37:49;;;;;;;39.50;17.77;;;-1.20;99.90;;;;;;4993118;28;20577;-59
2023/12/01 05:40:30;;;;;;;40.63;18.33;;;-1.20;99.90;;;;;;4990949;28;20485;-59
2023/12/01 05:42:57;;;;;;;37.37;16.97;;;-1.20;99.90;;;;;;5013037;28;20440;-60
2023/12/01 05:45:26;;;;;;;40.43;19.47;;;-1.20;99.90;;;;;;5026296;28;20037;-60
2023/12/01 05:47:53;;;;;;;34.50;17.90;;;-1.20;99.90;;;;;;5004329;28;20438;-59
2023/12/01 05:54:06;;;;;;;37.57;17.63;;;-1.20;99.90;;;;;;5010657;28;20397;-59
2023/12/01 05:56:32;;;;;;;39.13;19.83;;;-1.30;99.90;;;;;;4996301;28;20041;-60
2023/12/01 05:58:57;;;;;;;38.57;17.17;;;-1.30;99.90;;;;;;5013005;28;20038;-60
2023/12/01 06:01:25;;;;;;;38.30;18.30;;;-1.30;99.90;;;;;;5011644;28;20493;-59
2023/12/01 06:03:51;;;;;;;38.57;18.07;;;-1.30;99.90;;;;;;5030326;28;20077;-60
2023/12/01 06:06:17;;;;;;;35.03;17.27;;;-1.30;99.90;;;;;;5015781;28;20464;-60
2023/12/01 06:08:43;;;;;;;44.00;18.50;;;-1.40;99.90;;;;;;4998102;28;20065;-60
2023/12/01 06:11:08;;;;;;;36.93;17.77;;;-1.40;99.90;;;;;;5001761;28;20141;-59
2023/12/01 06:13:34;;;;;;;44.07;19.93;;;-1.40;99.90;;;;;;5005660;28;20042;-60
2023/12/01 06:16:00;;;;;;;43.10;19.60;;;-1.50;99.90;;;;;;5011290;28;20045;-59
2023/12/01 06:18:29;;;;;;;37.60;17.40;;;-1.50;99.90;;;;;;5011611;28;20049;-60
2023/12/01 06:20:55;;;;;;;39.33;17.73;;;-1.50;99.90;;;;;;5032242;28;20061;-59
2023/12/01 06:23:21;;;;;;;41.80;19.67;;;-1.50;99.90;;;;;;5016481;28;20539;-59
2023/12/01 06:25:47;;;;;;;34.77;17.17;;;-1.50;99.90;;;;;;5030507;28;20149;-59
2023/12/01 06:28:12;;;;;;;35.47;17.80;;;-1.50;99.90;;;;;;4997150;28;20050;-59
2023/12/01 06:30:38;;;;;;;34.23;16.23;;;-1.50;99.90;;;;;;5015262;28;20263;-59
2023/12/01 06:33:06;;;;;;;39.87;19.20;;;-1.50;99.90;;;;;;5006688;28;20046;-60
2023/12/01 06:35:32;;;;;;;37.17;18.67;;;-1.70;99.90;;;;;;4999892;28;20034;-59
2023/12/01 06:37:58;;;;;;;45.97;22.27;;;-1.70;99.90;;;;;;5018825;28;20582;-58
2023/12/01 06:40:24;;;;;;;42.70;22.10;;;-1.70;99.90;;;;;;5010018;28;20045;-59
2023/12/01 06:42:52;;;;;;;45.57;22.07;;;-1.80;99.90;;;;;;5018811;28;20095;-60
2023/12/01 06:45:23;;;;;;;35.63;20.57;;;-1.80;99.90;;;;;;5012630;28;20452;-59
2023/12/01 06:47:50;;;;;;;39.37;19.47;;;-1.80;99.90;;;;;;5017554;28;20042;-59
2023/12/01 06:50:21;;;;;;;39.30;18.83;;;-1.80;99.90;;;;;;4996332;28;20037;-59
2023/12/01 06:52:49;;;;;;;35.90;19.03;;;-1.80;99.90;;;;;;5015422;28;20030;-59
2023/12/01 06:55:15;;;;;;;37.43;19.30;;;-1.80;99.90;;;;;;5017204;28;20120;-59
2023/12/01 06:57:46;;;;;;;38.67;18.80;;;-1.80;99.90;;;;;;5009925;28;20045;-60
2023/12/01 07:00:32;;;;;;;43.20;19.33;;;-1.80;99.90;;;;;;5013305;28;20120;-60
2023/12/01 07:03:00;;;;;;;36.57;16.40;;;-1.80;99.90;;;;;;5006186;28;20037;-59
2023/12/01 07:05:27;;;;;;;35.67;17.70;;;-1.80;99.90;;;;;;5027944;28;20158;-59
2023/12/01 07:07:53;;;;;;;35.33;17.87;;;-1.80;99.90;;;;;;5008449;28;20047;-58
2023/12/01 07:10:21;;;;;;;39.43;17.83;;;-1.80;99.90;;;;;;5001168;28;20140;-58
2023/12/01 07:12:47;;;;;;;41.23;18.53;;;-1.80;99.90;;;;;;5011943;28;20034;-59
2023/12/01 07:15:14;;;;;;;39.17;17.97;;;-1.80;99.90;;;;;;5013580;28;20084;-58
2023/12/01 07:17:40;;;;;;;40.97;18.63;;;-1.80;99.90;;;;;;5028092;28;20120;-58
2023/12/01 07:20:15;;;;;;;34.40;16.50;;;-1.80;99.90;;;;;;4997381;28;20041;-58
2023/12/01 07:22:42;;;;;;;35.00;17.40;;;-1.80;99.90;;;;;;4999407;28;20037;-59
2023/12/01 07:25:21;;;;;;;38.57;16.73;;;-1.90;99.90;;;;;;5030408;28;20038;-59
2023/12/01 07:28:09;;;;;;;41.93;17.00;;;-1.90;99.90;;;;;;5013982;28;20469;-58
2023/12/01 07:30:36;;;;;;;42.47;19.03;;;-1.90;99.90;;;;;;5016100;28;20569;-58
2023/12/01 07:33:05;;;;;;;38.93;16.70;;;-1.90;99.90;;;;;;5030928;28;20041;-59
2023/12/01 07:35:31;;;;;;;39.70;17.27;;;-1.90;99.90;;;;;;5022575;28;20065;-58
2023/12/01 07:37:57;;;;;;;35.83;16.07;;;-1.90;99.90;;;;;;5016144;28;20096;-58
2023/12/01 07:40:23;;;;;;;37.43;17.77;;;-1.80;99.90;;;;;;5000046;28;20074;-58
2023/12/01 07:42:51;;;;;;;37.03;19.07;;;-1.80;99.90;;;;;;5029159;28;20048;-59
2023/12/01 07:45:18;;;;;;;41.73;17.27;;;-1.80;99.90;;;;;;5012686;28;20124;-58
2023/12/01 07:47:49;;;;;;;39.13;19.07;;;-1.90;99.90;;;;;;5000363;28;20514;-58
2023/12/01 07:50:15;;;;;;;42.40;20.07;;;-1.90;99.90;;;;;;5013387;28;20034;-58
2023/12/01 07:52:48;;;;;;;40.03;18.43;;;-1.90;99.90;;;;;;5022252;28;20053;-58
2023/12/01 07:55:14;;;;;;;36.47;17.60;;;-1.80;99.90;;;;;;5004424;28;20050;-58
2023/12/01 07:57:43;;;;;;;39.60;19.33;;;-1.90;99.90;;;;;;5010277;28;20504;-58
2023/12/01 08:00:16;;;;;;;42.97;18.07;;;-1.80;99.90;;;;;;5000640;28;20042;-57
2023/12/01 08:02:46;;;;;;;45.90;18.20;;;-1.80;99.90;;;;;;5013381;28;20038;-59
2023/12/01 08:05:15;;;;;;;40.00;19.20;;;-1.80;99.90;;;;;;5006564;28;20034;-59
2023/12/01 08:07:52;;;;;;;52.17;20.47;;;-1.80;99.90;;;;;;5004270;28;20045;-59
2023/12/01 08:10:22;;;;;;;43.30;18.70;;;-1.80;99.90;;;;;;5002468;28;20131;-59
2023/12/01 08:12:49;;;;;;;42.03;17.73;;;-1.70;99.90;;;;;;5008159;28;20155;-59
2023/12/01 08:15:16;;;;;;;50.60;21.43;;;-1.70;99.90;;;;;;5000541;28;20057;-59
2023/12/01 08:17:43;;;;;;;43.80;19.13;;;-1.70;99.90;;;;;;5001269;28;20120;-59
2023/12/01 08:20:12;;;;;;;44.10;21.73;;;-1.70;99.90;;;;;;5002619;28;20600;-59
2023/12/01 08:22:39;;;;;;;40.03;18.57;;;-1.70;99.90;;;;;;5012223;28;20118;-58
2023/12/01 08:25:06;;;;;;;47.20;21.00;;;-1.70;99.90;;;;;;5004627;28;20498;-59
2023/12/01 08:27:33;;;;;;;42.93;20.87;;;-1.70;99.90;;;;;;4990004;28;20072;-59
2023/12/01 08:29:59;;;;;;;40.80;19.57;;;-1.60;99.90;;;;;;5006840;28;20054;-59
2023/12/01 08:32:24;;;;;;;44.57;20.17;;;-1.60;99.90;;;;;;4999508;28;20362;-59
2023/12/01 08:34:54;;;;;;;41.90;21.57;;;-1.50;99.90;;;;;;5013649;28;20424;-59
2023/12/01 08:37:20;;;;;;;45.87;21.30;;;-1.50;99.90;;;;;;5016875;28;20069;-59
2023/12/01 08:39:46;;;;;;;44.33;20.00;;;-1.40;99.90;;;;;;5009961;28;20038;-59
2023/12/01 08:42:12;;;;;;;45.80;20.33;;;-1.40;99.90;;;;;;5025558;28;20064;-60
2023/12/01 08:44:38;;;;;;;44.90;20.23;;;-1.40;99.90;;;;;;5001663;28;20038;-59
2023/12/01 08:47:04;;;;;;;44.93;20.17;;;-1.30;99.90;;;;;;5028218;28;20401;-59
2023/12/01 08:49:30;;;;;;;40.03;17.87;;;-1.20;99.90;;;;;;5016223;28;20042;-59
2023/12/01 08:51:55;;;;;;;45.53;21.47;;;-1.20;99.90;;;;;;5021222;28;20446;-59
2023/12/01 08:54:24;;;;;;;63.23;31.37;;;-1.20;99.90;;;;;;5005934;28;20145;-59
2023/12/01 08:56:50;;;;;;;61.67;27.17;;;-1.10;99.90;;;;;;5009602;28;20078;-59
2023/12/01 08:59:18;;;;;;;84.23;38.63;;;-1.10;99.90;;;;;;5005317;28;20552;-59
2023/12/01 09:01:44;;;;;;;53.43;24.40;;;-1.10;99.90;;;;;;5006075;28;20394;-59
2023/12/01 09:04:10;;;;;;;52.03;23.13;;;-1.00;99.90;;;;;;5007675;28;20053;-59
2023/12/01 09:06:38;;;;;;;52.93;21.90;;;-1.00;99.90;;;;;;4973760;28;1120867;-59
2023/12/01 09:09:04;;;;;;;42.97;19.23;;;-0.90;99.90;;;;;;5019874;28;20060;-59
2023/12/01 09:11:30;;;;;;;51.07;24.20;;;-0.80;99.90;;;;;;5021206;28;20496;-59
2023/12/01 09:13:56;;;;;;;48.87;21.83;;;-0.80;99.90;;;;;;4983393;28;20045;-59
2023/12/01 09:16:23;;;;;;;47.03;20.93;;;-0.80;99.90;;;;;;5018884;28;20520;-58
2023/12/01 09:18:50;;;;;;;43.30;18.57;;;-0.70;99.90;;;;;;5021905;28;20368;-59
2023/12/01 09:21:16;;;;;;;46.40;20.03;;;-0.70;99.90;;;;;;5003685;28;20389;-59
2023/12/01 09:23:44;;;;;;;43.60;19.77;;;-0.60;99.90;;;;;;5004711;28;20049;-59
2023/12/01 09:26:17;;;;;;;40.00;18.20;;;-0.50;99.90;;;;;;4985172;28;20346;-59
2023/12/01 09:28:42;;;;;;;46.03;22.27;;;-0.50;99.90;;;;;;5002639;28;20096;-59
2023/12/01 09:31:10;;;;;;;41.17;19.17;;;-0.40;99.90;;;;;;5028249;28;20034;-59
2023/12/01 09:33:37;;;;;;;37.60;17.70;;;-0.30;99.90;;;;;;5020662;28;20045;-59
2023/12/01 09:36:04;;;;;;;43.13;20.37;;;-0.30;99.90;;;;;;5006710;28;20496;-59
2023/12/01 09:38:31;;;;;;;44.90;19.13;;;-0.20;99.90;;;;;;5022547;28;20044;-59
2023/12/01 09:40:57;;;;;;;45.23;19.50;;;-0.20;99.90;;;;;;5018210;28;20042;-59
2023/12/01 09:43:23;;;;;;;40.80;18.60;;;-0.10;99.90;;;;;;4987127;28;20042;-59
2023/12/01 09:45:50;;;;;;;40.67;18.60;;;-0.10;99.90;;;;;;5006611;28;20038;-59
2023/12/01 09:48:19;;;;;;;43.07;19.03;;;-0.10;99.90;;;;;;5013648;28;20128;-59
2023/12/01 09:50:49;;;;;;;44.23;20.07;;;-0.10;99.90;;;;;;4998780;28;20597;-59
2023/12/01 09:53:16;;;;;;;40.50;18.23;;;-0.10;99.90;;;;;;4993439;28;20187;-59
2023/12/01 09:55:42;;;;;;;37.75;17.85;;;0.00;99.90;;;;;;5000252;28;20040;-59
2023/12/01 09:58:10;;;;;;;40.45;18.77;;;0.00;99.90;;;;;;4999367;28;20132;-59
2023/12/01 10:00:35;;;;;;;39.57;19.07;;;0.10;99.90;;;;;;4999501;28;20041;-59
2023/12/01 10:03:01;;;;;;;38.93;17.90;;;0.10;99.90;;;;;;4991894;28;20041;-59
2023/12/01 10:05:32;;;;;;;36.07;16.73;;;0.10;99.90;;;;;;4997580;28;20030;-59
2023/12/01 10:07:58;;;;;;;33.10;16.03;;;0.10;99.90;;;;;;5016673;28;20361;-59
2023/12/01 10:10:26;;;;;;;38.55;18.38;;;0.10;99.90;;;;;;5003566;28;20042;-59
2023/12/01 10:13:04;;;;;;;38.47;17.70;;;0.10;99.90;;;;;;5006820;28;20663;-60
2023/12/01 10:15:31;;;;;;;34.07;16.63;;;0.10;99.90;;;;;;5009449;28;20050;-60
2023/12/01 10:18:19;;;;;;;35.07;15.63;;;0.10;99.90;;;;;;4985692;28;21038;-59
2023/12/01 10:20:56;;;;;;;35.50;17.75;;;0.30;99.90;;;;;;4995694;28;20046;-59
2023/12/01 10:23:22;;;;;;;36.65;17.67;;;0.40;99.90;;;;;;4996733;28;20086;-59
2023/12/01 10:25:49;;;;;;;34.38;18.05;;;0.40;99.90;;;;;;5001422;28;20131;-59
2023/12/01 10:28:18;;;;;;;36.08;17.45;;;0.30;99.90;;;;;;5000365;28;20045;-59
2023/12/01 10:30:55;;;;;;;34.47;16.97;;;0.40;99.90;;;;;;5019216;28;20436;-59
2023/12/01 10:33:22;;;;;;;34.20;17.63;;;0.40;99.90;;;;;;4998151;28;20128;-60
2023/12/01 10:36:05;;;;;;;37.60;18.23;;;0.40;99.90;;;;;;5010414;28;20045;-59
2023/12/01 10:38:36;;;;;;;34.90;18.20;;;0.40;99.90;;;;;;5007880;28;20081;-60
2023/12/01 10:41:04;;;;;;;31.50;16.07;;;0.40;99.90;;;;;;5009292;28;20033;-59
2023/12/01 10:47:12;;;;;;;29.58;14.82;;;0.50;99.90;;;;;;5014107;28;20113;-59
2023/12/01 10:49:39;;;;;;;30.48;16.05;;;0.60;99.90;;;;;;5016830;28;20120;-59
2023/12/01 10:52:09;;;;;;;33.17;15.35;;;0.60;99.90;;;;;;5010191;28;20038;-59
2023/12/01 10:54:36;;;;;;;30.50;14.82;;;0.70;99.90;;;;;;5007004;28;20100;-59
2023/12/01 10:57:14;;;;;;;28.70;14.82;;;0.80;99.90;;;;;;5009105;28;20049;-59
2023/12/01 10:59:45;;;;;;;33.70;15.50;;;0.90;99.90;;;;;;5009916;28;20050;-59
2023/12/01 11:02:13;;;;;;;30.25;15.32;;;0.90;99.90;;;;;;4996807;28;20067;-59
2023/12/01 11:04:42;;;;;;;34.15;16.60;;;1.00;99.90;;;;;;5001819;28;20049;-59
2023/12/01 11:07:33;;;;;;;32.00;16.90;;;0.90;99.90;;;;;;5002183;28;20046;-59
2023/12/01 11:10:22;;;;;;;32.22;17.02;;;0.90;99.90;;;;;;5003811;28;20464;-59
2023/12/01 11:13:07;;;;;;;34.33;17.23;;;1.00;99.90;;;;;;5009889;28;20099;-59
2023/12/01 11:15:35;;;;;;;31.00;15.55;;;1.10;99.90;;;;;;5005799;28;20083;-59
2023/12/01 11:18:01;;;;;;;28.67;15.02;;;1.00;99.90;;;;;;5008148;28;20491;-59
2023/12/01 11:20:33;;;;;;;28.80;16.30;;;0.90;99.90;;;;;;5000838;28;20072;-59
2023/12/01 11:23:24;;;;;;;28.70;15.60;;;1.00;99.90;;;;;;5007856;28;20099;-59
2023/12/01 11:26:11;;;;;;;28.50;15.02;;;1.00;99.90;;;;;;5007332;28;20046;-59
2023/12/01 11:28:45;;;;;;;30.85;16.00;;;0.90;99.90;;;;;;5014291;28;20077;-59
2023/12/01 11:31:43;;;;;;;27.88;14.35;;;1.00;99.90;;;;;;5008576;28;20037;-59
2023/12/01 11:34:05;;;;;;;30.92;16.20;;;1.10;99.90;;;;;;5030671;28;20045;-58
2023/12/01 11:36:35;;;;;;;29.45;14.65;;;1.20;99.90;;;;;;5004569;28;20053;-59
2023/12/01 11:39:29;;;;;;;32.28;16.40;;;1.30;99.90;;;;;;5010667;28;20045;-59
2023/12/01 11:42:02;;;;;;;28.08;15.90;;;1.40;99.90;;;;;;5001603;28;20068;-59
2023/12/01 11:44:37;;;;;;;32.53;16.55;;;1.30;99.90;;;;;;5000983;28;20412;-58
2023/12/01 11:47:05;;;;;;;27.95;14.38;;;1.30;99.90;;;;;;4998650;28;20033;-58
2023/12/01 11:49:57;;;;;;;29.35;16.13;;;1.30;99.90;;;;;;4990560;28;20038;-59
2023/12/01 11:52:24;;;;;;;27.45;14.50;;;1.40;99.90;;;;;;5003002;28;20544;-59
2023/12/01 11:54:50;;;;;;;28.15;13.82;;;1.50;99.90;;;;;;5007590;28;20042;-59
2023/12/01 11:57:17;;;;;;;28.73;15.23;;;1.50;99.90;;;;;;5005335;28;20053;-58
2023/12/01 11:59:44;;;;;;;32.72;15.75;;;1.40;99.90;;;;;;5011441;28;20053;-59
2023/12/01 12:02:10;;;;;;;26.75;14.55;;;1.50;99.90;;;;;;5007748;28;20049;-58
2023/12/01 12:04:39;;;;;;;27.23;15.23;;;1.50;99.90;;;;;;5023447;28;20042;-58
2023/12/01 12:07:06;;;;;;;29.30;14.85;;;1.70;99.90;;;;;;4997233;28;20029;-59
2023/12/01 12:09:33;;;;;;;30.58;16.40;;;1.70;99.90;;;;;;4989115;28;20038;-58
2023/12/01 12:12:09;;;;;;;27.08;14.85;;;1.70;99.90;;;;;;4986952;28;20037;-58
2023/12/01 12:14:37;;;;;;;29.17;16.05;;;1.70;99.90;;;;;;5008258;28;20081;-59
2023/12/01 12:17:03;;;;;;;27.55;15.13;;;1.70;99.90;;;;;;5020607;28;20058;-59
2023/12/01 12:19:43;;;;;;;30.75;17.23;;;1.60;99.90;;;;;;5004951;28;20393;-59
2023/12/01 12:22:09;;;;;;;29.02;15.15;;;1.60;99.90;;;;;;4997664;28;20374;-58
2023/12/01 12:24:35;;;;;;;29.90;16.58;;;1.60;99.90;;;;;;4993793;28;20520;-58
2023/12/01 12:27:00;;;;;;;25.27;14.23;;;1.60;99.90;;;;;;5002897;28;20077;-58
2023/12/01 12:29:26;;;;;;;28.95;15.25;;;1.60;99.90;;;;;;5001091;28;20531;-59
2023/12/01 12:31:52;;;;;;;32.75;16.20;;;1.50;99.90;;;;;;5000606;28;20048;-59
2023/12/01 12:34:18;;;;;;;44.85;20.88;;;1.60;99.90;;;;;;5000686;28;20042;-58
2023/12/01 12:36:46;;;;;;;44.42;20.65;;;1.50;99.90;;;;;;4999236;28;20046;-59
2023/12/01 12:39:16;;;;;;;54.92;22.27;;;1.40;99.90;;;;;;4999938;28;20504;-59
2023/12/01 12:41:49;;;;;;;31.98;16.27;;;1.40;99.90;;;;;;5004396;28;20042;-59
2023/12/01 12:44:15;;;;;;;30.43;17.53;;;1.40;99.90;;;;;;4988128;28;20121;-59
2023/12/01 12:46:41;;;;;;;34.80;20.33;;;1.30;99.90;;;;;;4996845;28;20890;-58